sensor_id;sensor_type;location;lat;lon;timestamp;pressure;altitude;pressure_sealevel;temperature;humidity
48386;BME280;34644;47.964;7.982;2022-10-16T00:05:14;96502.19;;;17.68;72.15
48386;BME280;34644;47.964;7.982;2022-10-16T00:12:15;96505.94;;;17.67;71.99
48386;BME280;34644;47.964;7.982;2022-10-16T00:19:15;96489.44;;;17.65;72.21
48386;BME280;34644;47.964;7.982;2022-10-16T00:26:16;96513.13;;;17.67;72.22
48386;BME280;34644;47.964;7.982;2022-10-16T00:33:16;96502.19;;;17.68;72.24
48386;BME280;34644;47.964;7.982;2022-10-16T00:40:16;96520.34;;;17.66;72.18
48386;BME280;34644;47.964;7.982;2022-10-16T00:47:27;96516.59;;;17.67;72.33
48386;BME280;34644;47.964;7.982;2022-10-16T00:54:29;96511.25;;;17.67;72.33
48386;BME280;34644;47.964;7.982;2022-10-16T01:01:31;96517.41;;;17.68;72.17
48386;BME280;34644;47.964;7.982;2022-10-16T01:08:34;96533.41;;;17.68;72.44
48386;BME280;34644;47.964;7.982;2022-10-16T01:15:44;96537.91;;;17.67;72.36
48386;BME280;34644;47.964;7.982;2022-10-16T01:30:04;96531.78;;;17.67;72.75
48386;BME280;34644;47.964;7.982;2022-10-16T01:37:18;96538.72;;;17.68;72.43
48386;BME280;34644;47.964;7.982;2022-10-16T01:44:22;96542.16;;;17.68;72.55
48386;BME280;34644;47.964;7.982;2022-10-16T01:51:25;96525.41;;;17.68;72.58
48386;BME280;34644;47.964;7.982;2022-10-16T01:58:26;96532.56;;;17.67;72.54
48386;BME280;34644;47.964;7.982;2022-10-16T02:05:31;96505.94;;;17.67;72.49
48386;BME280;34644;47.964;7.982;2022-10-16T02:12:33;96520.84;;;17.68;72.54
48386;BME280;34644;47.964;7.982;2022-10-16T02:19:36;96528.84;;;17.68;72.71
48386;BME280;34644;47.964;7.982;2022-10-16T02:26:39;96527.25;;;17.67;72.64
48386;BME280;34644;47.964;7.982;2022-10-16T02:33:42;96533.41;;;17.68;72.46
48386;BME280;34644;47.964;7.982;2022-10-16T02:40:43;96536.06;;;17.68;72.53
48386;BME280;34644;47.964;7.982;2022-10-16T02:47:44;96542.97;;;17.69;72.59
48386;BME280;34644;47.964;7.982;2022-10-16T02:54:44;96543.25;;;17.67;72.75
48386;BME280;34644;47.964;7.982;2022-10-16T03:01:44;96542.97;;;17.69;72.74
48386;BME280;34644;47.964;7.982;2022-10-16T03:08:45;96550.16;;;17.68;72.87
48386;BME280;34644;47.964;7.982;2022-10-16T03:15:45;96551.22;;;17.67;72.76
48386;BME280;34644;47.964;7.982;2022-10-16T03:22:45;96549.06;;;17.69;72.83
48386;BME280;34644;47.964;7.982;2022-10-16T03:29:45;96548.56;;;17.67;72.77
48386;BME280;34644;47.964;7.982;2022-10-16T03:36:46;96548.56;;;17.67;72.82
48386;BME280;34644;47.964;7.982;2022-10-16T03:43:46;96539.50;;;17.68;72.93
48386;BME280;34644;47.964;7.982;2022-10-16T03:50:46;96539.50;;;17.68;72.95
48386;BME280;34644;47.964;7.982;2022-10-16T03:57:48;96544.84;;;17.68;72.88
48386;BME280;34644;47.964;7.982;2022-10-16T04:04:48;96549.38;;;17.68;73.01
48386;BME280;34644;47.964;7.982;2022-10-16T04:11:49;96555.50;;;17.68;72.90
48386;BME280;34644;47.964;7.982;2022-10-16T04:18:49;96552.84;;;17.68;72.78
48386;BME280;34644;47.964;7.982;2022-10-16T04:25:49;96559.22;;;17.67;72.95
48386;BME280;34644;47.964;7.982;2022-10-16T04:32:51;96571.22;;;17.70;72.88
48386;BME280;34644;47.964;7.982;2022-10-16T04:39:51;96569.88;;;17.67;72.98
48386;BME280;34644;47.964;7.982;2022-10-16T04:46:52;96570.69;;;17.68;72.89
48386;BME280;34644;47.964;7.982;2022-10-16T04:53:53;96571.50;;;17.68;72.70
48386;BME280;34644;47.964;7.982;2022-10-16T05:00:53;96567.22;;;17.67;72.83
48386;BME280;34644;47.964;7.982;2022-10-16T05:07:53;96556.56;;;17.67;72.72
48386;BME280;34644;47.964;7.982;2022-10-16T05:14:54;96570.69;;;17.68;73.46
48386;BME280;34644;47.964;7.982;2022-10-16T05:21:58;96576.31;;;17.66;73.59
48386;BME280;34644;47.964;7.982;2022-10-16T05:28:59;96590.69;;;17.65;73.17
48386;BME280;34644;47.964;7.982;2022-10-16T05:36:06;96602.97;;;17.66;72.85
48386;BME280;34644;47.964;7.982;2022-10-16T05:43:07;96608.56;;;17.65;73.23
48386;BME280;34644;47.964;7.982;2022-10-16T05:50:07;96601.38;;;17.65;73.03
48386;BME280;34644;47.964;7.982;2022-10-16T05:57:08;96597.09;;;17.64;73.11
48386;BME280;34644;47.964;7.982;2022-10-16T06:04:08;96604.03;;;17.65;73.15
48386;BME280;34644;47.964;7.982;2022-10-16T06:11:10;96608.56;;;17.65;72.94
48386;BME280;34644;47.964;7.982;2022-10-16T06:18:10;96615.75;;;17.64;73.03
48386;BME280;34644;47.964;7.982;2022-10-16T06:25:11;96618.69;;;17.63;72.76
48386;BME280;34644;47.964;7.982;2022-10-16T06:32:11;96642.41;;;17.64;72.80
48386;BME280;34644;47.964;7.982;2022-10-16T06:39:11;96654.16;;;17.63;72.93
48386;BME280;34644;47.964;7.982;2022-10-16T06:46:13;96660.28;;;17.64;72.74
48386;BME280;34644;47.964;7.982;2022-10-16T06:53:13;96670.16;;;17.63;72.81
48386;BME280;34644;47.964;7.982;2022-10-16T07:00:13;96662.44;;;17.62;72.77
48386;BME280;34644;47.964;7.982;2022-10-16T07:07:14;96685.88;;;17.60;72.80
48386;BME280;34644;47.964;7.982;2022-10-16T07:14:18;96703.19;;;17.62;72.52
48386;BME280;34644;47.964;7.982;2022-10-16T07:21:19;96712.50;;;17.60;72.56
48386;BME280;34644;47.964;7.982;2022-10-16T07:28:20;96722.13;;;17.61;72.50
48386;BME280;34644;47.964;7.982;2022-10-16T07:35:21;96725.06;;;17.59;72.53
48386;BME280;34644;47.964;7.982;2022-10-16T07:42:21;96741.81;;;17.60;72.50
48386;BME280;34644;47.964;7.982;2022-10-16T07:49:21;96742.38;;;17.62;72.32
48386;BME280;34644;47.964;7.982;2022-10-16T07:56:22;96754.06;;;17.66;72.18
48386;BME280;34644;47.964;7.982;2022-10-16T08:03:23;96767.66;;;17.64;72.29
48386;BME280;34644;47.964;7.982;2022-10-16T08:10:24;96773.81;;;17.65;72.13
48386;BME280;34644;47.964;7.982;2022-10-16T08:17:25;96770.31;;;17.64;72.19
48386;BME280;34644;47.964;7.982;2022-10-16T08:24:25;96771.94;;;17.65;72.25
48386;BME280;34644;47.964;7.982;2022-10-16T08:31:26;96775.09;;;17.67;72.16
48386;BME280;34644;47.964;7.982;2022-10-16T08:38:27;96780.94;;;17.69;71.92
48386;BME280;34644;47.964;7.982;2022-10-16T08:52:32;96774.94;;;18.03;71.33
48386;BME280;34644;47.964;7.982;2022-10-16T08:59:33;96776.00;;;18.02;72.26
48386;BME280;34644;47.964;7.982;2022-10-16T09:13:48;96786.66;;;18.07;72.93
48386;BME280;34644;47.964;7.982;2022-10-16T09:20:51;96793.88;;;18.02;72.53
48386;BME280;34644;47.964;7.982;2022-10-16T09:27:53;96796.03;;;18.00;72.54
48386;BME280;34644;47.964;7.982;2022-10-16T09:34:54;96807.44;;;18.05;73.05
48386;BME280;34644;47.964;7.982;2022-10-16T09:41:56;96807.75;;;18.38;71.88
48386;BME280;34644;47.964;7.982;2022-10-16T09:49:00;96808.34;;;18.30;72.19
48386;BME280;34644;47.964;7.982;2022-10-16T09:56:01;96798.13;;;18.42;71.60
48386;BME280;34644;47.964;7.982;2022-10-16T10:03:01;96803.53;;;18.67;70.88
48386;BME280;34644;47.964;7.982;2022-10-16T10:10:03;96805.53;;;18.85;70.35
48386;BME280;34644;47.964;7.982;2022-10-16T10:17:14;96813.94;;;18.97;69.83
48386;BME280;34644;47.964;7.982;2022-10-16T10:24:15;96811.16;;;19.08;69.65
48386;BME280;34644;47.964;7.982;2022-10-16T10:46:01;96806.16;;;19.01;70.17
48386;BME280;34644;47.964;7.982;2022-10-16T10:53:25;96800.28;;;18.99;70.39
48386;BME280;34644;47.964;7.982;2022-10-16T11:00:34;96790.19;;;18.96;70.45
48386;BME280;34644;47.964;7.982;2022-10-16T11:07:49;96789.38;;;18.95;70.16
48386;BME280;34644;47.964;7.982;2022-10-16T11:22:36;96779.47;;;19.01;70.24
48386;BME280;34644;47.964;7.982;2022-10-16T11:29:22;96780.09;;;19.17;69.51
48386;BME280;34644;47.964;7.982;2022-10-16T11:43:34;96767.75;;;19.21;69.41
48386;BME280;34644;47.964;7.982;2022-10-16T11:57:43;96774.72;;;19.41;68.98
48386;BME280;34644;47.964;7.982;2022-10-16T12:04:47;96777.28;;;19.51;69.01
48386;BME280;34644;47.964;7.982;2022-10-16T12:11:48;96774.47;;;19.62;68.43
48386;BME280;34644;47.964;7.982;2022-10-16T12:18:49;96760.81;;;19.63;68.83
48386;BME280;34644;47.964;7.982;2022-10-16T12:25:53;96766.03;;;20.64;60.39
48386;BME280;34644;47.964;7.982;2022-10-16T12:32:58;96763.88;;;20.14;60.93
48386;BME280;34644;47.964;7.982;2022-10-16T12:40:04;96758.88;;;20.26;58.93
48386;BME280;34644;47.964;7.982;2022-10-16T12:47:22;96748.38;;;20.30;57.24
48386;BME280;34644;47.964;7.982;2022-10-16T12:54:25;96736.94;;;20.24;56.44
48386;BME280;34644;47.964;7.982;2022-10-16T13:01:36;96744.94;;;20.43;56.25
48386;BME280;34644;47.964;7.982;2022-10-16T13:30:37;96739.25;;;21.47;53.61
48386;BME280;34644;47.964;7.982;2022-10-16T13:37:38;96734.31;;;21.26;53.90
48386;BME280;34644;47.964;7.982;2022-10-16T13:44:48;96736.91;;;21.18;54.95
48386;BME280;34644;47.964;7.982;2022-10-16T13:51:56;96729.25;;;21.25;54.37
48386;BME280;34644;47.964;7.982;2022-10-16T13:59:01;96743.88;;;21.05;54.88
48386;BME280;34644;47.964;7.982;2022-10-16T14:06:02;96748.31;;;20.82;57.13
48386;BME280;34644;47.964;7.982;2022-10-16T14:13:04;96739.19;;;20.96;56.23
48386;BME280;34644;47.964;7.982;2022-10-16T14:20:06;96748.94;;;20.92;56.25
48386;BME280;34644;47.964;7.982;2022-10-16T14:27:24;96741.66;;;20.93;57.39
48386;BME280;34644;47.964;7.982;2022-10-16T14:34:36;96742.94;;;20.68;58.86
48386;BME280;34644;47.964;7.982;2022-10-16T14:41:41;96739.41;;;20.53;59.80
48386;BME280;34644;47.964;7.982;2022-10-16T14:48:44;96739.28;;;20.45;60.77
48386;BME280;34644;47.964;7.982;2022-10-16T14:55:46;96746.63;;;20.86;59.18
48386;BME280;34644;47.964;7.982;2022-10-16T15:02:47;96751.97;;;20.86;60.04
48386;BME280;34644;47.964;7.982;2022-10-16T15:09:48;96754.16;;;20.51;61.12
48386;BME280;34644;47.964;7.982;2022-10-16T15:16:48;96759.41;;;20.42;61.91
48386;BME280;34644;47.964;7.982;2022-10-16T15:23:49;96760.09;;;20.34;61.97
48386;BME280;34644;47.964;7.982;2022-10-16T15:30:50;96766.91;;;20.26;62.77
48386;BME280;34644;47.964;7.982;2022-10-16T15:37:51;96764.81;;;20.23;62.82
48386;BME280;34644;47.964;7.982;2022-10-16T15:44:51;96762.28;;;20.13;63.26
48386;BME280;34644;47.964;7.982;2022-10-16T15:51:51;96774.66;;;20.09;63.22
48386;BME280;34644;47.964;7.982;2022-10-16T15:58:53;96780.88;;;20.04;63.46
48386;BME280;34644;47.964;7.982;2022-10-16T16:05:54;96788.97;;;19.99;64.00
48386;BME280;34644;47.964;7.982;2022-10-16T16:12:54;96800.25;;;19.96;64.13
48386;BME280;34644;47.964;7.982;2022-10-16T16:19:54;96796.34;;;19.88;64.65
48386;BME280;34644;47.964;7.982;2022-10-16T16:26:55;96805.16;;;19.88;66.02
48386;BME280;34644;47.964;7.982;2022-10-16T16:33:55;96810.88;;;19.82;65.91
48386;BME280;34644;47.964;7.982;2022-10-16T16:40:56;96812.47;;;19.59;66.24
48386;BME280;34644;47.964;7.982;2022-10-16T16:47:57;96818.28;;;19.66;66.64
48386;BME280;34644;47.964;7.982;2022-10-16T16:54:57;96839.13;;;19.64;66.92
48386;BME280;34644;47.964;7.982;2022-10-16T17:01:58;96839.41;;;19.62;66.52
48386;BME280;34644;47.964;7.982;2022-10-16T17:09:00;96859.78;;;19.58;66.87
48386;BME280;34644;47.964;7.982;2022-10-16T17:16:03;96867.06;;;19.52;67.01
48386;BME280;34644;47.964;7.982;2022-10-16T17:23:03;96866.06;;;19.48;67.55
48386;BME280;34644;47.964;7.982;2022-10-16T17:30:04;96877.81;;;19.47;67.73
48386;BME280;34644;47.964;7.982;2022-10-16T17:37:05;96879.22;;;19.64;67.82
48386;BME280;34644;47.964;7.982;2022-10-16T17:44:05;96891.59;;;19.60;68.49
48386;BME280;34644;47.964;7.982;2022-10-16T17:51:06;96900.31;;;19.95;66.69
48386;BME280;34644;47.964;7.982;2022-10-16T17:58:07;96910.56;;;20.06;66.75
48386;BME280;34644;47.964;7.982;2022-10-16T18:05:08;96930.25;;;20.16;66.20
48386;BME280;34644;47.964;7.982;2022-10-16T18:12:08;96937.34;;;20.25;65.94
48386;BME280;34644;47.964;7.982;2022-10-16T18:19:09;96946.09;;;20.12;67.13
48386;BME280;34644;47.964;7.982;2022-10-16T18:26:11;96939.88;;;19.68;67.87
48386;BME280;34644;47.964;7.982;2022-10-16T18:33:12;96942.66;;;19.58;68.16
48386;BME280;34644;47.964;7.982;2022-10-16T18:40:12;96944.09;;;19.50;68.58
48386;BME280;34644;47.964;7.982;2022-10-16T18:47:12;96951.88;;;19.47;68.59
48386;BME280;34644;47.964;7.982;2022-10-16T18:54:13;96964.19;;;19.43;68.81
48386;BME280;34644;47.964;7.982;2022-10-16T19:01:14;96971.47;;;19.37;69.30
48386;BME280;34644;47.964;7.982;2022-10-16T19:08:14;96979.25;;;19.33;69.41
48386;BME280;34644;47.964;7.982;2022-10-16T19:15:15;96979.00;;;19.30;69.97
48386;BME280;34644;47.964;7.982;2022-10-16T19:22:15;96983.28;;;19.31;70.14
48386;BME280;34644;47.964;7.982;2022-10-16T19:29:26;96992.94;;;19.27;70.39
48386;BME280;34644;47.964;7.982;2022-10-16T19:36:28;97000.44;;;19.25;71.00
48386;BME280;34644;47.964;7.982;2022-10-16T19:43:29;97014.34;;;19.22;70.84
48386;BME280;34644;47.964;7.982;2022-10-16T19:50:29;97035.72;;;19.22;71.11
48386;BME280;34644;47.964;7.982;2022-10-16T19:57:31;97037.88;;;19.20;71.26
48386;BME280;34644;47.964;7.982;2022-10-16T20:04:33;97046.16;;;19.18;71.45
48386;BME280;34644;47.964;7.982;2022-10-16T20:11:33;97066.69;;;19.23;70.49
48386;BME280;34644;47.964;7.982;2022-10-16T20:18:34;97068.63;;;19.17;71.03
48386;BME280;34644;47.964;7.982;2022-10-16T20:25:35;97075.25;;;19.20;70.69
48386;BME280;34644;47.964;7.982;2022-10-16T20:32:35;97080.09;;;19.17;70.28
48386;BME280;34644;47.964;7.982;2022-10-16T20:39:36;97084.94;;;19.15;70.82
48386;BME280;34644;47.964;7.982;2022-10-16T20:46:36;97102.84;;;19.15;70.45
48386;BME280;34644;47.964;7.982;2022-10-16T20:53:37;97088.16;;;19.12;71.09
48386;BME280;34644;47.964;7.982;2022-10-16T21:00:37;97089.50;;;19.10;70.94
48386;BME280;34644;47.964;7.982;2022-10-16T21:07:38;97092.44;;;19.08;71.72
48386;BME280;34644;47.964;7.982;2022-10-16T21:14:38;97100.72;;;19.07;71.88
48386;BME280;34644;47.964;7.982;2022-10-16T21:21:38;97099.16;;;19.06;72.11
48386;BME280;34644;47.964;7.982;2022-10-16T21:28:38;97100.22;;;19.05;72.49
48386;BME280;34644;47.964;7.982;2022-10-16T21:35:39;97110.38;;;19.03;72.84
48386;BME280;34644;47.964;7.982;2022-10-16T21:42:39;97109.56;;;19.02;72.15
48386;BME280;34644;47.964;7.982;2022-10-16T21:49:39;97100.75;;;19.02;72.46
48386;BME280;34644;47.964;7.982;2022-10-16T21:56:40;97105.31;;;19.01;72.15
48386;BME280;34644;47.964;7.982;2022-10-16T22:03:40;97113.59;;;19.00;72.49
48386;BME280;34644;47.964;7.982;2022-10-16T22:10:41;97098.66;;;18.98;72.19
48386;BME280;34644;47.964;7.982;2022-10-16T22:17:42;97095.44;;;19.02;71.96
48386;BME280;34644;47.964;7.982;2022-10-16T22:24:42;97103.72;;;19.00;71.74
48386;BME280;34644;47.964;7.982;2022-10-16T22:31:43;97104.50;;;19.01;71.37
48386;BME280;34644;47.964;7.982;2022-10-16T22:38:43;97102.09;;;18.99;71.38
48386;BME280;34644;47.964;7.982;2022-10-16T22:45:43;97102.94;;;19.00;71.30
48386;BME280;34644;47.964;7.982;2022-10-16T22:52:44;97107.44;;;18.99;71.15
48386;BME280;34644;47.964;7.982;2022-10-16T22:59:45;97110.38;;;18.97;71.29
48386;BME280;34644;47.964;7.982;2022-10-16T23:06:46;97117.63;;;18.97;70.92
48386;BME280;34644;47.964;7.982;2022-10-16T23:13:46;97122.97;;;18.97;71.02
48386;BME280;34644;47.964;7.982;2022-10-16T23:20:46;97122.44;;;18.95;70.88
48386;BME280;34644;47.964;7.982;2022-10-16T23:27:46;97118.97;;;18.94;70.85
48386;BME280;34644;47.964;7.982;2022-10-16T23:34:47;97125.13;;;18.95;70.97
48386;BME280;34644;47.964;7.982;2022-10-16T23:41:47;97125.13;;;18.95;70.94
48386;BME280;34644;47.964;7.982;2022-10-16T23:48:47;97134.19;;;18.94;70.91
48386;BME280;34644;47.964;7.982;2022-10-16T23:55:48;97137.13;;;18.92;70.84
